Time;durP1;ratioP1;P1;durP2;ratioP2;P2;SDS_P1;SDS_P2;PMS_P1;PMS_P2;Temp;Humidity;BMP_temperature;BMP_pressure;BME280_temperature;BME280_humidity;BME280_pressure;Samples;Min_cycle;Max_cycle;Signal;HPM_P1;HPM_P2
2023/10/10 00:03:11;;;;;;;3.95;1.88;;;;;;;14.81;44.34;99568.00;6068460;23;20009;-93
2023/10/10 00:05:43;;;;;;;3.75;2.05;;;;;;;14.49;44.48;99532.34;6129473;23;20014;-94
2023/10/10 00:08:44;;;;;;;3.38;2.10;;;;;;;14.62;45.00;99551.72;6066313;23;20007;-94
2023/10/10 00:11:14;;;;;;;6.28;2.25;;;;;;;14.46;45.21;99545.66;6001486;23;20011;-94
2023/10/10 00:23:30;;;;;;;4.25;1.77;;;;;;;14.47;44.52;99529.09;5919749;24;20009;-95
2023/10/10 00:26:25;;;;;;;4.38;1.85;;;;;;;14.34;45.20;99517.06;5904119;24;20024;-94
2023/10/10 00:29:00;;;;;;;3.80;1.73;;;;;;;14.47;45.38;99539.16;5951188;24;20012;-93
2023/10/10 00:31:55;;;;;;;3.38;1.98;;;;;;;14.65;45.28;99551.94;5980945;24;20012;-94
2023/10/10 00:34:26;;;;;;;3.63;1.80;;;;;;;14.44;46.14;99547.84;6008549;23;20055;-94
2023/10/10 00:37:01;;;;;;;6.30;2.10;;;;;;;14.38;46.60;99543.56;6016278;23;20008;-94
2023/10/10 00:39:52;;;;;;;9.30;2.15;;;;;;;14.13;46.60;99500.28;6048336;23;20002;-95
2023/10/10 00:42:49;;;;;;;4.22;2.03;;;;;;;14.21;47.06;99528.59;6035751;23;20182;-95
2023/10/10 00:45:43;;;;;;;3.92;2.00;;;;;;;14.18;47.00;99525.69;6081352;23;20473;-94
2023/10/10 00:48:22;;;;;;;3.55;1.95;;;;;;;13.99;46.74;99512.88;6037887;23;20019;-94
2023/10/10 00:56:44;;;;;;;6.90;2.03;;;;;;;13.88;48.45;99535.72;6069181;23;20050;-94
2023/10/10 00:59:17;;;;;;;3.10;1.80;;;;;;;13.71;48.16;99518.03;6031679;23;20056;-95
2023/10/10 01:02:20;;;;;;;6.65;2.22;;;;;;;13.62;48.09;99527.06;6055649;23;20037;-95
2023/10/10 01:07:29;;;;;;;7.68;2.10;;;;;;;13.60;47.89;99513.00;6001600;23;20046;-95
2023/10/10 01:13:14;;;;;;;3.60;1.55;;;;;;;13.53;47.89;99519.56;6024523;23;20011;-94
2023/10/10 01:16:18;;;;;;;5.00;2.30;;;;;;;13.51;47.83;99516.31;5975585;23;20450;-96
2023/10/10 01:18:54;;;;;;;4.30;2.05;;;;;;;13.60;47.58;99521.94;6002649;23;20117;-95
2023/10/10 01:22:09;;;;;;;;;;;;;;;;;;;;;
2023/10/10 01:24:57;;;;;;;;;;;;;;;;;;;;;
2023/10/10 01:27:46;;;;;;;3.38;1.98;;;;;;;13.44;48.76;99521.25;6111462;23;20025;-95
2023/10/10 01:30:25;;;;;;;4.10;1.77;;;;;;;13.46;49.41;99529.09;6117774;23;20023;-94
2023/10/10 01:33:32;;;;;;;;;;;;;;;;;;;;;
2023/10/10 01:36:00;;;;;;;;;;;;;;;13.60;49.92;99557.09;6175604;23;20448;-93
2023/10/10 01:41:51;;;;;;;5.45;2.20;;;;;;;13.58;49.45;99553.88;6179034;23;20000;-95
2023/10/10 01:44:27;;;;;;;3.00;1.90;;;;;;;13.47;49.10;99533.41;6119595;23;20005;-95
2023/10/10 01:50:50;;;;;;;5.13;1.98;;;;;;;13.18;50.82;99523.34;6029315;23;20515;-94
2023/10/10 01:56:18;;;;;;;7.07;2.00;;;;;;;13.14;51.23;99533.91;6062955;23;20061;-94
2023/10/10 01:59:06;;;;;;;6.88;2.63;;;;;;;13.07;51.47;99544.22;6116429;23;20001;-95
2023/10/10 02:01:56;;;;;;;6.05;2.03;;;;;;;13.13;52.33;99566.59;6124052;23;20021;-94
2023/10/10 02:04:28;;;;;;;9.13;2.20;;;;;;;13.02;52.01;99570.47;6144588;23;20005;-96
2023/10/10 02:07:22;;;;;;;6.60;1.95;;;;;;;12.88;52.90;99562.16;6119227;23;20073;-94
2023/10/10 02:10:18;;;;;;;5.55;1.60;;;;;;;12.72;52.78;99554.16;6122962;23;20502;-95
2023/10/10 02:12:44;;;;;;;3.95;1.85;;;;;;;12.87;52.41;99572.19;6091569;23;20097;-94
2023/10/10 02:15:36;;;;;;;;;;;;;;;;;;;;;
2023/10/10 02:18:43;;;;;;;;;;;;;;;;;;;;;
2023/10/10 02:21:16;;;;;;;5.15;1.83;;;;;;;12.73;53.15;99592.78;6098179;23;20030;-95
2023/10/10 02:23:46;;;;;;;2.88;1.92;;;;;;;12.61;53.34;99576.09;6085860;23;20056;-95
2023/10/10 02:26:23;;;;;;;3.65;1.92;;;;;;;12.56;52.92;99568.03;6083287;23;20009;-95
2023/10/10 02:31:51;;;;;;;;;;;;;;;;;;;;;
2023/10/10 02:37:54;;;;;;;5.15;1.50;;;;;;;12.49;52.89;99571.81;6063642;23;20072;-95
2023/10/10 02:40:30;;;;;;;8.13;2.05;;;;;;;12.63;53.35;99601.72;6071119;23;20012;-94
2023/10/10 02:43:46;;;;;;;4.72;1.90;;;;;;;12.68;52.95;99601.72;6055105;23;20061;-95
2023/10/10 02:46:18;;;;;;;6.78;2.15;;;;;;;12.46;53.21;99568.84;6056917;23;20014;-95
2023/10/10 02:48:53;;;;;;;;;;;;;;;12.74;53.05;99606.03;6030358;23;20023;-94
2023/10/10 02:51:22;;;;;;;3.17;1.80;;;;;;;12.38;53.59;99577.53;6023978;23;19910;-94
2023/10/10 02:57:57;;;;;;;3.20;1.63;;;;;;;12.32;54.16;99601.03;5989804;23;20012;-95
2023/10/10 03:00:34;;;;;;;4.20;1.67;;;;;;;12.22;54.66;99585.69;6001299;23;20043;-95
2023/10/10 03:03:18;;;;;;;4.68;1.85;;;;;;;12.26;54.40;99573.22;6024139;23;20407;-95
2023/10/10 03:09:38;;;;;;;3.30;1.77;;;;;;;12.12;54.88;99564.09;6007534;23;20011;-95
2023/10/10 03:12:27;;;;;;;;;;;;;;;;;;;;;
2023/10/10 03:14:53;;;;;;;5.03;1.65;;;;;;;12.03;55.30;99557.63;6010307;23;20035;-94
2023/10/10 03:26:18;;;;;;;6.15;1.85;;;;;;;12.08;54.95;99585.44;6082267;23;20016;-94
2023/10/10 03:29:17;;;;;;;;;;;;;;;;;;;;;
2023/10/10 03:38:57;;;;;;;;;;;;;;;;;;;;;
2023/10/10 05:23:29;;;;;;;6.45;2.42;;;;;;;11.99;55.41;99584.34;6143776;23;20425;-95
2023/10/10 05:29:13;;;;;;;7.68;2.70;;;;;;;13.41;53.24;99677.91;6138102;23;20017;-96
2023/10/10 05:31:45;;;;;;;18.35;4.15;;;;;;;13.28;53.98;99654.94;6116795;23;20009;-96
2023/10/10 05:34:11;;;;;;;39.47;5.63;;;;;;;13.40;54.44;99679.78;6124020;23;20083;-95
2023/10/10 05:36:52;;;;;;;15.73;4.72;;;;;;;13.61;53.69;99680.44;6150413;23;20011;-95
2023/10/10 05:39:20;;;;;;;12.75;3.65;;;;;;;13.52;53.09;99647.78;6122337;23;20065;-95
2023/10/10 05:42:25;;;;;;;17.92;5.18;;;;;;;13.94;52.61;99688.88;6123416;23;20087;-94
2023/10/10 05:44:54;;;;;;;15.32;4.93;;;;;;;13.93;51.08;99662.91;6149896;23;20012;-95
2023/10/10 05:47:42;;;;;;;12.07;4.57;;;;;;;14.10;50.73;99663.28;6146040;23;20005;-95
2023/10/10 05:54:11;;;;;;;17.92;4.13;;;;;;;14.43;50.29;99684.41;6201300;23;20019;-95
2023/10/10 05:56:46;;;;;;;23.55;12.75;;;;;;;14.52;49.41;99686.19;6146164;23;20028;-93
2023/10/10 05:59:25;;;;;;;75.07;43.58;;;;;;;14.73;48.72;99700.38;6128937;23;20005;-96
2023/10/10 06:02:42;;;;;;;50.72;24.25;;;;;;;14.77;50.41;99697.09;6150465;23;20028;-96
2023/10/10 06:05:26;;;;;;;15.10;4.93;;;;;;;14.58;50.85;99675.34;6170150;23;20067;-94
2023/10/10 06:07:54;;;;;;;16.42;4.63;;;;;;;14.60;49.74;99681.28;6123518;23;20000;-93
2023/10/10 06:10:53;;;;;;;11.60;3.85;;;;;;;14.66;48.74;99680.13;6150694;23;20001;-95
2023/10/10 06:16:59;;;;;;;11.00;4.22;;;;;;;14.86;48.67;99701.59;6079215;23;20015;-96
2023/10/10 06:19:32;;;;;;;13.30;5.07;;;;;;;14.72;48.51;99679.78;6107505;23;20470;-96
2023/10/10 06:24:57;;;;;;;39.75;19.88;;;;;;;14.88;48.41;99714.84;6222374;22;20035;-95
2023/10/10 06:27:36;;;;;;;16.60;4.43;;;;;;;14.85;48.26;99699.97;6181299;23;20050;-94
2023/10/10 06:30:05;;;;;;;10.13;3.85;;;;;;;14.96;48.63;99706.06;6151198;23;20024;-93
2023/10/10 06:32:34;;;;;;;16.98;4.38;;;;;;;15.02;47.74;99691.34;6153333;23;20016;-96
2023/10/10 06:38:24;;;;;;;16.83;4.95;;;;;;;15.06;48.31;99707.84;6209798;23;20015;-94
2023/10/10 06:41:07;;;;;;;;;;;;;;;;;;;;;
2023/10/10 06:43:43;;;;;;;12.32;4.70;;;;;;;15.41;47.61;99727.50;6177332;23;20371;-93
2023/10/10 06:46:26;;;;;;;;;;;;;;;;;;;;;
2023/10/10 06:49:04;;;;;;;11.15;4.07;;;;;;;15.33;47.77;99694.47;6178005;23;20012;-91
2023/10/10 06:51:59;;;;;;;10.77;4.82;;;;;;;15.64;48.29;99723.91;6156136;23;20046;-91
2023/10/10 06:54:53;;;;;;;22.23;9.27;;;;;;;15.73;48.03;99726.81;6178345;23;20040;-92
2023/10/10 06:57:57;;;;;;;21.95;11.43;;;;;;;15.67;47.16;99704.34;6160231;23;20012;-90
2023/10/10 07:00:53;;;;;;;17.63;5.38;;;;;;;15.91;47.54;99733.31;6198432;23;20003;-91
2023/10/10 07:03:30;;;;;;;14.23;4.10;;;;;;;15.76;47.51;99718.88;6181786;23;20066;-90
2023/10/10 07:06:20;;;;;;;12.02;4.05;;;;;;;15.85;47.63;99718.22;6179183;23;20004;-94
2023/10/10 07:09:17;;;;;;;60.67;27.48;;;;;;;15.95;47.16;99708.00;6182571;23;20066;-96
2023/10/10 07:15:39;;;;;;;;;;;;;;;;;;;;;
2023/10/10 07:18:33;;;;;;;;;;;;;;;;;;;;;
2023/10/10 07:21:37;;;;;;;18.42;4.10;;;;;;;16.52;47.36;99723.38;6210769;23;20001;-96
2023/10/10 07:24:18;;;;;;;14.07;6.53;;;;;;;16.91;47.04;99730.28;6171581;23;20411;-94
2023/10/10 07:26:58;;;;;;;7.85;3.42;;;;;;;17.04;46.72;99734.94;6174917;23;20023;-93
2023/10/10 07:33:53;;;;;;;;;;;;;;;;;;;;;
2023/10/10 08:06:08;;;;;;;8.95;4.30;;;;;;;18.00;43.82;99748.69;6214009;22;20304;-93
2023/10/10 08:09:45;;;;;;;11.75;4.07;;;;;;;18.06;44.06;99747.47;6205201;22;20028;-95
2023/10/10 08:13:09;;;;;;;;;;;;;;;;;;;;;
2023/10/10 08:16:20;;;;;;;5.95;2.85;;;;;;;18.48;43.76;99772.59;6022675;23;20451;-95
2023/10/10 08:19:32;;;;;;;6.60;3.42;;;;;;;18.57;43.61;99765.25;6065444;23;20089;-96
2023/10/10 08:22:46;;;;;;;6.90;3.55;;;;;;;18.42;43.23;99739.19;6169456;23;20024;-92
2023/10/10 08:25:33;;;;;;;8.55;3.97;;;;;;;18.38;43.68;99755.34;6167547;23;20001;-92
2023/10/10 08:28:01;;;;;;;11.75;3.33;;;;;;;18.39;43.30;99750.72;6166210;23;20020;-94
2023/10/10 08:30:43;;;;;;;8.32;3.47;;;;;;;18.45;43.28;99749.50;6110033;23;20010;-94
2023/10/10 08:33:09;;;;;;;10.45;3.40;;;;;;;18.60;43.45;99769.31;6108289;23;20012;-93
2023/10/10 08:35:55;;;;;;;8.05;3.60;;;;;;;18.58;43.20;99745.06;6134226;23;20065;-95
2023/10/10 08:38:45;;;;;;;6.53;3.53;;;;;;;18.64;43.26;99752.00;6168615;23;20384;-96
2023/10/10 08:45:28;;;;;;;6.85;3.85;;;;;;;18.60;43.64;99745.56;6145334;23;20020;-96
2023/10/10 08:48:01;;;;;;;11.10;4.05;;;;;;;18.62;43.45;99759.69;6116131;23;20013;-94
2023/10/10 08:50:36;;;;;;;8.90;4.30;;;;;;;18.49;43.46;99758.66;6117763;23;20033;-94
2023/10/10 08:53:05;;;;;;;10.70;4.43;;;;;;;18.56;43.98;99788.22;6117600;23;20005;-95
2023/10/10 08:59:52;;;;;;;9.00;3.58;;;;;;;18.38;44.26;99760.00;6107085;23;20173;-92
2023/10/10 09:17:49;;;;;;;9.98;3.72;;;;;;;18.63;44.02;99760.47;6224796;22;20028;-94
2023/10/10 09:24:41;;;;;;;9.75;3.67;;;;;;;19.03;43.01;99742.25;6041266;23;20006;-96
2023/10/10 09:34:03;;;;;;;7.40;3.90;;;;;;;19.75;41.76;99771.00;6206873;22;20097;-96
2023/10/10 09:37:08;;;;;;;9.30;3.70;;;;;;;19.88;40.93;99771.19;6155566;23;20097;-92
2023/10/10 09:39:36;;;;;;;9.43;3.72;;;;;;;19.75;40.79;99768.28;6130274;23;19997;-92
2023/10/10 09:42:07;;;;;;;12.30;3.85;;;;;;;19.86;40.86;99774.25;6121703;23;20001;-93
2023/10/10 09:47:43;;;;;;;7.20;3.50;;;;;;;19.78;40.84;99758.66;6131380;23;20032;-95
2023/10/10 09:57:22;;;;;;;;;;;;;;;;;;;;;
2023/10/10 10:03:46;;;;;;;;;;;;;;;;;;;;;
2023/10/10 10:07:13;;;;;;;11.73;3.55;;;;;;;19.49;41.87;99762.75;6062827;23;20014;-96
2023/10/10 10:23:13;;;;;;;13.68;4.28;;;;;;;20.32;41.02;99770.06;6078168;23;20010;-94
2023/10/10 10:29:15;;;;;;;5.38;3.50;;;;;;;20.55;40.04;99756.97;6030204;23;20011;-94
2023/10/10 10:36:06;;;;;;;;;;;;;;;;;;;;;
2023/10/10 10:47:59;;;;;;;;;;;;;;;;;;;;;
2023/10/10 10:50:46;;;;;;;7.68;3.60;;;;;;;21.08;38.89;99734.91;6192896;23;20020;-93
2023/10/10 10:53:35;;;;;;;8.02;3.40;;;;;;;21.10;39.21;99735.38;6183064;23;20027;-93
2023/10/10 10:59:11;;;;;;;9.98;3.22;;;;;;;21.22;38.65;99718.25;6183158;23;20015;-92
2023/10/10 11:16:23;;;;;;;9.05;2.92;;;;;;;21.38;39.56;99743.94;6255167;22;20020;-96
2023/10/10 11:19:56;;;;;;;110.22;59.20;;;;;;;21.47;39.07;99713.78;6213726;23;20115;-93
2023/10/10 11:48:34;;;;;;;;;;;;;;;;;;;;;
2023/10/10 11:51:54;;;;;;;;;;;;;;;;;;;;;
2023/10/10 11:55:20;;;;;;;;;;;;;;;;;;;;;
2023/10/10 12:01:22;;;;;;;;;;;;;;;;;;;;;
2023/10/10 12:04:04;;;;;;;;;;;;;;;;;;;;;
2023/10/10 12:22:17;;;;;;;;;;;;;;;;;;;;;
2023/10/10 12:24:56;;;;;;;;;;;;;;;;;;;;;
2023/10/10 12:27:37;;;;;;;4.85;2.80;;;;;;;21.50;38.48;99702.94;6159283;23;20055;-95
2023/10/10 12:37:15;;;;;;;;;;;;;;;;;;;;;
2023/10/10 12:43:25;;;;;;;4.25;2.30;;;;;;;21.11;39.85;99720.56;6158681;23;20017;-96
2023/10/10 12:45:51;;;;;;;3.38;2.25;;;;;;;21.08;40.11;99702.06;6106881;23;20061;-93
2023/10/10 12:48:20;;;;;;;6.55;2.63;;;;;;;21.15;40.03;99708.63;6144001;23;20013;-95
2023/10/10 12:51:13;;;;;;;7.30;2.55;;;;;;;21.04;39.89;99693.69;6143962;23;20007;-92
2023/10/10 12:54:20;;;;;;;4.97;2.47;;;;;;;20.96;40.20;99678.94;6176031;23;20009;-93
2023/10/10 12:57:13;;;;;;;10.38;2.28;;;;;;;20.91;40.35;99690.06;6134016;23;19989;-96
2023/10/10 13:21:35;;;;;;;;;;;;;;;;;;;;;
2023/10/10 13:24:24;;;;;;;;;;;;;;;;;;;;;
2023/10/10 13:26:58;;;;;;;12.23;3.67;;;;;;;20.78;41.95;99707.53;6207377;23;19923;-95
2023/10/10 13:29:55;;;;;;;13.35;2.85;;;;;;;20.58;42.46;99689.88;6183467;22;19996;-96
2023/10/10 13:32:41;;;;;;;6.20;2.03;;;;;;;20.78;41.98;99708.31;6182559;23;20009;-96
2023/10/10 13:35:28;;;;;;;;;;;;;;;;;;;;;
2023/10/10 13:57:21;;;;;;;7.10;2.80;;;;;;;20.52;41.47;99685.69;6021649;23;20098;-96
2023/10/10 14:03:14;;;;;;;4.95;2.92;;;;;;;20.55;41.90;99693.25;6205707;22;20777;-96
2023/10/10 14:06:22;;;;;;;9.20;3.65;;;;;;;20.66;41.67;99696.47;6115937;23;20030;-94
2023/10/10 14:08:57;;;;;;;4.93;2.17;;;;;;;20.58;41.30;99696.16;5997801;23;20016;-94
2023/10/10 14:11:49;;;;;;;4.07;2.20;;;;;;;20.70;40.56;99706.41;6053988;23;20097;-92
2023/10/10 14:14:14;;;;;;;20.38;11.25;;;;;;;20.60;40.74;99704.03;6127301;23;20001;-91
2023/10/10 14:16:43;;;;;;;10.80;6.20;;;;;;;20.56;41.14;99703.06;6078324;23;20033;-91
2023/10/10 14:19:08;;;;;;;20.40;5.40;;;;;;;20.66;40.60;99713.69;6078826;23;20006;-89
2023/10/10 14:21:48;;;;;;;;;;;;;;;;;;;;;
2023/10/10 14:24:36;;;;;;;4.88;2.42;;;;;;;20.66;40.26;99701.94;6150587;23;20032;-95
2023/10/10 14:27:25;;;;;;;;;;;;;;;20.72;40.92;99734.25;6111174;23;20021;-95
2023/10/10 14:43:05;;;;;;;6.10;2.40;;;;;;;20.57;41.93;99737.50;6229921;22;20025;-96
2023/10/10 14:49:10;;;;;;;;;;;;;;;;;;;;;
2023/10/10 14:51:33;;;;;;;5.88;2.45;;;;;;;20.61;42.44;99754.09;6154141;23;20029;-95
2023/10/10 14:54:06;;;;;;;9.68;2.60;;;;;;;20.47;42.13;99763.28;6156457;23;20355;-95
2023/10/10 14:56:45;;;;;;;4.70;2.28;;;;;;;20.49;41.79;99752.00;6230458;23;20008;-96
2023/10/10 15:05:34;;;;;;;6.65;2.72;;;;;;;20.37;42.33;99767.13;6238990;22;20015;-96
2023/10/10 15:08:09;;;;;;;7.57;3.10;;;;;;;20.41;42.68;99777.44;6179808;23;20023;-93
2023/10/10 15:10:40;;;;;;;16.48;3.80;;;;;;;20.38;42.08;99768.75;6209143;23;20012;-94
2023/10/10 15:13:08;;;;;;;9.77;5.57;;;;;;;20.44;41.73;99780.34;6179255;23;20000;-96
2023/10/10 15:15:45;;;;;;;;;;;;;;;;;;;;;
2023/10/10 15:18:16;;;;;;;8.20;2.83;;;;;;;20.43;41.72;99780.66;6207830;23;20473;-94
2023/10/10 15:21:32;;;;;;;9.27;3.17;;;;;;;20.37;42.20;99780.81;6183938;23;20015;-96
2023/10/10 15:24:42;;;;;;;;;;;;;;;;;;;;;
2023/10/10 15:30:29;;;;;;;;;;;;;;;;;;;;;
2023/10/10 15:36:18;;;;;;;4.18;2.22;;;;;;;20.28;40.89;99801.91;6228322;22;20035;-93
2023/10/10 15:38:57;;;;;;;;;;;;;;;;;;;;;
2023/10/10 15:41:25;;;;;;;7.43;2.63;;;;;;;20.25;40.75;99797.06;6206269;23;20024;-95
2023/10/10 15:44:08;;;;;;;6.47;2.50;;;;;;;20.28;40.83;99804.66;6186214;23;20042;-95
2023/10/10 15:47:26;;;;;;;6.78;3.10;;;;;;;20.37;40.44;99827.31;6268344;23;20011;-96
2023/10/10 15:50:00;;;;;;;8.57;2.90;;;;;;;20.37;40.83;99831.97;6147836;23;20009;-96
2023/10/10 15:52:27;;;;;;;14.63;8.80;;;;;;;20.38;41.25;99839.88;6090733;23;20061;-94
2023/10/10 15:54:57;;;;;;;7.95;3.15;;;;;;;20.25;40.68;99832.63;6116846;23;20005;-96
2023/10/10 15:57:42;;;;;;;18.15;11.48;;;;;;;20.19;40.23;99823.78;6116311;23;20006;-96
2023/10/10 16:00:15;;;;;;;6.30;2.80;;;;;;;20.27;39.62;99840.50;6141967;23;20096;-95
2023/10/10 16:06:08;;;;;;;11.00;3.08;;;;;;;20.05;39.30;99820.41;6223506;22;20023;-96
2023/10/10 16:09:04;;;;;;;8.05;2.70;;;;;;;19.95;39.75;99823.47;6064814;23;20023;-96
2023/10/10 16:11:34;;;;;;;4.75;2.67;;;;;;;20.04;39.78;99848.06;6085129;23;20007;-96
2023/10/10 16:14:29;;;;;;;8.77;2.45;;;;;;;19.90;39.74;99838.09;6081145;23;20014;-96
2023/10/10 16:16:56;;;;;;;11.52;4.18;;;;;;;19.87;40.08;99855.09;6075400;23;20110;-95
2023/10/10 16:19:42;;;;;;;;;;;;;;;;;;;;;
2023/10/10 16:22:14;;;;;;;12.35;3.60;;;;;;;19.58;41.79;99851.00;6111317;23;20409;-96
2023/10/10 16:24:59;;;;;;;4.47;2.73;;;;;;;19.50;41.81;99859.97;6109086;23;20007;-96
2023/10/10 16:27:25;;;;;;;9.43;3.17;;;;;;;19.43;42.23;99858.81;6077632;23;20033;-95
2023/10/10 16:29:55;;;;;;;5.75;3.28;;;;;;;19.30;42.34;99844.13;6077985;23;20093;-95
2023/10/10 16:32:21;;;;;;;6.22;3.20;;;;;;;19.38;42.33;99867.94;6077052;23;20006;-95
2023/10/10 16:34:47;;;;;;;14.82;3.85;;;;;;;19.39;42.65;99881.28;6080305;23;20042;-96
2023/10/10 16:37:26;;;;;;;;;;;;;;;;;;;;;
2023/10/10 16:39:59;;;;;;;10.15;3.80;;;;;;;19.18;42.69;99869.31;6116793;23;20025;-96
2023/10/10 16:42:26;;;;;;;9.38;4.18;;;;;;;19.08;42.57;99862.19;6180071;23;20047;-96
2023/10/10 16:44:55;;;;;;;13.90;3.55;;;;;;;19.01;42.89;99859.13;6180106;23;20060;-96
2023/10/10 16:48:23;;;;;;;;;;;;;;;;;;;;;
2023/10/10 16:51:01;;;;;;;15.18;3.90;;;;;;;18.92;43.73;99869.97;6117498;23;20026;-96
2023/10/10 16:53:43;;;;;;;11.25;3.85;;;;;;;18.86;43.74;99879.38;6152744;23;20008;-96
2023/10/10 16:56:49;;;;;;;12.73;3.42;;;;;;;18.85;43.93;99885.97;6156345;23;20047;-96
2023/10/10 16:59:55;;;;;;;8.27;4.10;;;;;;;18.74;43.53;99877.22;6157372;22;20004;-94
2023/10/10 17:02:27;;;;;;;16.38;4.70;;;;;;;18.73;43.54;99889.22;6182154;22;20082;-96
2023/10/10 17:05:04;;;;;;;15.68;4.47;;;;;;;18.77;43.86;99901.13;6179916;23;20016;-96
2023/10/10 17:07:31;;;;;;;16.27;4.65;;;;;;;18.62;44.03;99889.81;6203381;23;20427;-95
2023/10/10 17:10:04;;;;;;;9.23;5.30;;;;;;;18.64;44.02;99899.28;6141606;23;20092;-95
2023/10/10 17:12:32;;;;;;;12.70;5.20;;;;;;;18.64;43.51;99896.56;6117698;23;20092;-96
2023/10/10 17:14:59;;;;;;;19.23;5.18;;;;;;;18.66;44.12;99899.78;6095517;23;20013;-95
2023/10/10 17:17:25;;;;;;;9.50;4.53;;;;;;;18.66;44.66;99905.25;6118398;23;20100;-95
2023/10/10 17:19:51;;;;;;;10.50;5.68;;;;;;;18.61;44.51;99904.53;6119271;23;20041;-95
2023/10/10 17:22:21;;;;;;;10.43;4.10;;;;;;;18.51;44.11;99895.50;6093801;23;20024;-95
2023/10/10 17:27:38;;;;;;;;;;;;;;;;;;;;;
2023/10/10 17:30:06;;;;;;;;;;;;;;;18.59;44.32;99923.94;6091094;23;20048;-96
2023/10/10 17:32:42;;;;;;;11.32;3.70;;;;;;;18.34;45.13;99901.63;6112711;23;19905;-95
2023/10/10 17:37:38;;;;;;;27.15;9.65;;;;;;;18.25;45.88;99919.00;6200351;23;20021;-96
2023/10/10 17:40:12;;;;;;;16.75;5.70;;;;;;;18.17;46.36;99915.88;6121763;23;20028;-95
2023/10/10 17:42:58;;;;;;;11.73;4.82;;;;;;;18.21;47.21;99929.69;6127556;23;20012;-95
2023/10/10 17:45:34;;;;;;;16.58;5.97;;;;;;;17.93;47.90;99896.25;6198724;23;20001;-96
2023/10/10 17:48:05;;;;;;;13.07;5.82;;;;;;;17.93;48.26;99910.66;6114142;23;20012;-91
2023/10/10 17:50:37;;;;;;;17.13;5.13;;;;;;;17.96;48.43;99920.16;6141962;23;20012;-91
2023/10/10 17:53:14;;;;;;;13.75;4.97;;;;;;;17.86;47.70;99914.91;6117268;23;20005;-92
2023/10/10 17:55:41;;;;;;;11.18;5.30;;;;;;;17.95;47.59;99943.03;6140249;23;20001;-92
2023/10/10 17:58:07;;;;;;;13.35;3.70;;;;;;;17.81;44.86;99934.88;6138638;23;19997;-90
2023/10/10 18:00:32;;;;;;;5.80;2.90;;;;;;;17.70;44.13;99934.25;6138698;23;19993;-93
2023/10/10 18:03:00;;;;;;;5.30;2.85;;;;;;;17.76;42.93;99945.84;6115143;23;20001;-92
2023/10/10 18:05:26;;;;;;;13.45;3.20;;;;;;;17.70;42.01;99950.59;6163362;23;20005;-90
2023/10/10 18:07:51;;;;;;;7.20;2.47;;;;;;;17.65;41.18;99941.72;6113748;23;20032;-90
2023/10/10 18:10:19;;;;;;;7.07;2.88;;;;;;;17.57;41.21;99944.00;6137801;23;20442;-90
2023/10/10 18:12:45;;;;;;;7.13;2.40;;;;;;;17.65;40.95;99949.88;6113451;23;20000;-91
2023/10/10 18:15:11;;;;;;;8.60;2.78;;;;;;;17.58;41.00;99951.09;6113201;23;20011;-91
2023/10/10 18:17:38;;;;;;;5.60;2.30;;;;;;;17.57;41.01;99944.00;6114198;23;20005;-91
2023/10/10 18:20:14;;;;;;;10.07;2.70;;;;;;;17.63;40.60;99950.16;6139230;23;19993;-91
2023/10/10 18:22:46;;;;;;;4.97;2.13;;;;;;;17.64;40.68;99959.16;6117530;23;20076;-91
2023/10/10 18:25:15;;;;;;;6.35;2.90;;;;;;;17.63;40.14;99963.00;6113555;23;20081;-91
2023/10/10 18:27:44;;;;;;;10.68;2.63;;;;;;;17.61;40.05;99960.56;6114648;23;20423;-90
2023/10/10 18:30:16;;;;;;;9.65;3.58;;;;;;;17.74;39.99;99980.75;6116437;23;20011;-90
2023/10/10 18:32:50;;;;;;;7.40;2.47;;;;;;;17.79;39.99;99986.09;6115086;23;20004;-91
2023/10/10 18:35:19;;;;;;;5.68;2.50;;;;;;;17.80;39.83;99986.91;6139666;23;20005;-92
2023/10/10 18:37:47;;;;;;;7.05;2.40;;;;;;;17.72;39.77;99972.06;6120504;23;20016;-91
2023/10/10 18:40:18;;;;;;;5.88;2.60;;;;;;;17.80;39.87;99979.53;6195614;23;19992;-91
2023/10/10 18:42:48;;;;;;;4.50;2.22;;;;;;;17.77;39.68;99983.69;6170987;23;20007;-91
2023/10/10 18:45:15;;;;;;;10.93;2.38;;;;;;;17.81;39.70;99988.53;6170638;23;20023;-90
2023/10/10 18:47:47;;;;;;;7.35;1.80;;;;;;;17.71;39.69;99967.75;6145331;23;20102;-92
2023/10/10 18:50:14;;;;;;;;;;;;;;;17.91;39.96;100010.19;6172671;23;20075;-92
2023/10/10 18:52:41;;;;;;;6.50;2.30;;;;;;;17.70;41.43;99990.63;6195037;23;19904;-94
2023/10/10 18:55:07;;;;;;;10.23;2.75;;;;;;;17.58;40.98;99983.75;6192851;23;20005;-93
2023/10/10 18:57:35;;;;;;;5.00;2.30;;;;;;;17.60;40.51;99985.34;6192755;23;20350;-90
2023/10/10 19:00:06;;;;;;;8.85;2.15;;;;;;;17.60;40.57;99991.63;6169041;23;19997;-91
2023/10/10 19:02:32;;;;;;;8.65;2.40;;;;;;;17.67;40.04;99996.69;6194516;23;20000;-90
2023/10/10 19:05:00;;;;;;;7.80;2.83;;;;;;;17.65;40.05;100001.63;6145771;23;20012;-92
2023/10/10 19:07:26;;;;;;;8.80;2.10;;;;;;;17.63;39.71;100015.53;6169824;23;20367;-93
2023/10/10 19:09:51;;;;;;;5.63;2.45;;;;;;;17.49;39.62;99993.75;6193527;23;20127;-92
2023/10/10 19:12:17;;;;;;;8.85;2.42;;;;;;;17.41;39.88;99991.69;6144503;23;20004;-91
2023/10/10 19:14:57;;;;;;;;;;;;;;;;;;;;;
2023/10/10 19:17:33;;;;;;;4.78;1.70;;;;;;;17.44;39.90;100003.91;6184442;23;20074;-92
2023/10/10 19:19:58;;;;;;;8.52;2.38;;;;;;;17.33;39.85;99995.91;6144336;23;20083;-92
2023/10/10 19:22:24;;;;;;;6.15;2.55;;;;;;;17.46;39.93;100024.28;6170144;23;20001;-94
2023/10/10 19:24:49;;;;;;;4.20;2.13;;;;;;;17.35;40.10;100031.00;6144316;23;20083;-90
2023/10/10 19:27:16;;;;;;;8.82;2.58;;;;;;;17.22;42.02;100018.13;6168832;23;20004;-91
2023/10/10 19:29:42;;;;;;;6.25;2.28;;;;;;;17.14;42.08;100014.16;6168075;23;20435;-91
2023/10/10 19:32:07;;;;;;;4.63;2.30;;;;;;;17.10;42.78;100003.09;6144321;23;20004;-91
2023/10/10 19:37:57;;;;;;;7.97;2.33;;;;;;;17.03;43.57;100015.44;6200454;23;20032;-90
2023/10/10 19:40:28;;;;;;;7.30;2.25;;;;;;;17.02;43.92;100039.13;6116016;23;20435;-91
2023/10/10 19:42:54;;;;;;;4.47;2.10;;;;;;;16.76;43.60;100001.38;6115669;23;19997;-90
2023/10/10 19:45:25;;;;;;;11.73;2.70;;;;;;;16.77;43.66;100022.03;6140863;23;20539;-94
2023/10/10 19:47:52;;;;;;;4.43;2.17;;;;;;;16.61;43.65;100008.97;6142146;23;20001;-95
2023/10/10 19:50:20;;;;;;;4.53;2.40;;;;;;;16.53;43.39;100010.41;6143519;23;20001;-95
2023/10/10 19:52:48;;;;;;;4.35;1.88;;;;;;;16.44;43.33;100009.47;6118357;23;20025;-95
2023/10/10 19:55:17;;;;;;;5.88;1.92;;;;;;;16.39;43.63;100023.09;6191929;23;20004;-94
2023/10/10 20:27:08;;;;;;;5.63;2.13;;;;;;;15.49;46.01;100044.38;6208298;23;19924;-96
2023/10/10 20:29:57;;;;;;;4.15;1.70;;;;;;;15.61;46.00;100071.16;6181924;23;20069;-96
2023/10/10 20:32:28;;;;;;;4.68;1.70;;;;;;;15.41;46.25;100040.38;6204971;23;20016;-96
2023/10/10 20:35:24;;;;;;;7.95;2.60;;;;;;;15.38;46.59;100048.25;6180934;23;20009;-96
2023/10/10 20:38:11;;;;;;;7.00;1.80;;;;;;;15.30;46.90;100046.97;6206047;23;20024;-96
2023/10/10 20:41:00;;;;;;;5.72;2.10;;;;;;;15.25;46.94;100050.53;6182550;23;19997;-96
2023/10/10 20:43:31;;;;;;;6.03;2.47;;;;;;;15.09;47.38;100036.28;6180835;23;19989;-96
2023/10/10 20:46:07;;;;;;;5.55;2.00;;;;;;;15.07;47.43;100054.72;6131720;23;20005;-95
2023/10/10 20:48:39;;;;;;;14.10;2.85;;;;;;;15.22;47.58;100070.09;6194010;23;20040;-96
2023/10/10 20:51:30;;;;;;;7.18;1.92;;;;;;;15.05;47.32;100045.25;6198316;23;20355;-96
2023/10/10 20:53:56;;;;;;;14.48;2.72;;;;;;;15.02;47.11;100038.47;6177875;23;20005;-96
2023/10/10 20:56:29;;;;;;;7.47;2.22;;;;;;;15.16;47.03;100053.03;6150468;23;20016;-96
2023/10/10 20:59:18;;;;;;;;;;;;;;;;;;;;;
2023/10/10 21:02:05;;;;;;;7.00;1.92;;;;;;;15.08;47.52;100036.56;6207464;23;19996;-96
2023/10/10 21:04:51;;;;;;;8.50;2.38;;;;;;;15.05;47.63;100045.25;6208067;23;20005;-96
2023/10/10 21:07:32;;;;;;;7.00;2.03;;;;;;;15.22;47.52;100063.84;6231500;23;20001;-96
2023/10/10 21:10:26;;;;;;;8.80;2.10;;;;;;;15.06;47.33;100033.31;6158254;23;20008;-95
2023/10/10 21:13:04;;;;;;;5.03;1.92;;;;;;;15.21;47.12;100060.34;6161587;23;20414;-96
2023/10/10 21:15:36;;;;;;;6.30;2.00;;;;;;;15.37;47.17;100069.16;6164093;23;20015;-96
2023/10/10 21:18:01;;;;;;;4.00;1.95;;;;;;;15.32;46.93;100061.06;6186759;23;20101;-95
2023/10/10 21:20:27;;;;;;;5.22;1.80;;;;;;;15.29;47.19;100058.91;6164032;23;20006;-95
2023/10/10 21:22:59;;;;;;;8.30;2.20;;;;;;;15.40;46.94;100078.63;6164817;23;20012;-96
2023/10/10 21:25:25;;;;;;;4.47;1.98;;;;;;;15.32;46.97;100067.31;6140785;23;20035;-96
2023/10/10 21:27:54;;;;;;;13.25;2.45;;;;;;;15.20;47.34;100055.19;6141171;23;20005;-96
2023/10/10 21:30:27;;;;;;;6.18;2.10;;;;;;;15.25;47.52;100068.72;6142372;23;20115;-95